Time;durP1;ratioP1;P1;durP2;ratioP2;P2;SDS_P1;SDS_P2;PMS_P1;PMS_P2;Temp;Humidity;BMP_temperature;BMP_pressure;BME280_temperature;BME280_humidity;BME280_pressure;Samples;Min_cycle;Max_cycle;Signal;HPM_P1;HPM_P2
2023/06/11 00:01:51;;;;;;;12.50;11.30;;;18.50;99.90;;;;;;5053118;28;20444;-58
2023/06/11 00:04:25;;;;;;;12.87;11.57;;;18.60;99.90;;;;;;5054354;28;20917;-59
2023/06/11 00:06:53;;;;;;;12.43;11.13;;;18.50;99.90;;;;;;5054383;28;20460;-58
2023/06/11 00:09:20;;;;;;;14.20;11.67;;;18.50;99.90;;;;;;5054260;28;20448;-59
2023/06/11 00:11:47;;;;;;;13.10;10.63;;;18.50;99.90;;;;;;5054314;28;20452;-58
2023/06/11 00:14:13;;;;;;;13.20;11.47;;;18.50;99.90;;;;;;5053663;28;20471;-58
2023/06/11 00:16:43;;;;;;;11.70;10.27;;;18.50;99.90;;;;;;5053555;28;20444;-58
2023/06/11 00:19:10;;;;;;;12.17;10.07;;;18.50;99.90;;;;;;5053152;28;20451;-60
2023/06/11 00:21:40;;;;;;;11.13;10.13;;;18.50;99.70;;;;;;5053034;28;20466;-58
2023/06/11 00:24:09;;;;;;;11.73;10.60;;;18.50;99.50;;;;;;5052818;28;20930;-58
2023/06/11 00:26:36;;;;;;;10.93;9.83;;;18.50;99.40;;;;;;5053591;28;20476;-58
2023/06/11 00:29:03;;;;;;;14.63;10.40;;;18.50;99.30;;;;;;5056785;28;20455;-58
2023/06/11 00:31:30;;;;;;;11.07;10.17;;;18.50;99.20;;;;;;5057314;28;20448;-57
2023/06/11 00:33:58;;;;;;;11.00;9.97;;;18.40;99.10;;;;;;5057170;28;20859;-57
2023/06/11 00:36:26;;;;;;;10.50;9.50;;;18.40;99.10;;;;;;5057125;28;20459;-59
2023/06/11 00:38:53;;;;;;;11.37;9.80;;;18.30;99.10;;;;;;5056818;28;20448;-59
2023/06/11 00:41:20;;;;;;;11.60;10.60;;;18.30;99.20;;;;;;5056827;28;20454;-59
2023/06/11 00:43:48;;;;;;;10.70;9.70;;;18.20;99.30;;;;;;5057218;28;20451;-59
2023/06/11 00:46:16;;;;;;;11.23;10.13;;;18.10;99.30;;;;;;5056530;28;20540;-60
2023/06/11 00:48:43;;;;;;;11.43;10.33;;;18.10;99.60;;;;;;5056722;28;20448;-59
2023/06/11 00:51:12;;;;;;;10.67;9.87;;;18.00;99.70;;;;;;5056309;28;20823;-59
2023/06/11 00:53:39;;;;;;;10.77;9.67;;;18.00;99.90;;;;;;5056303;28;20451;-58
2023/06/11 00:56:06;;;;;;;10.93;9.83;;;17.90;99.90;;;;;;5057061;28;20471;-58
2023/06/11 00:58:34;;;;;;;10.77;9.77;;;17.90;99.90;;;;;;5056721;28;20860;-58
2023/06/11 01:01:05;;;;;;;11.93;10.63;;;17.80;99.90;;;;;;5056756;28;20494;-58
2023/06/11 01:03:33;;;;;;;11.20;10.00;;;17.80;99.90;;;;;;5056281;28;20911;-58
2023/06/11 01:06:04;;;;;;;11.13;9.83;;;17.80;99.90;;;;;;5056356;28;20474;-58
2023/06/11 01:08:34;;;;;;;10.20;9.20;;;17.70;99.90;;;;;;5057204;28;20436;-58
2023/06/11 01:11:02;;;;;;;11.10;9.97;;;17.70;99.90;;;;;;5056615;28;20482;-59
2023/06/11 01:13:29;;;;;;;11.53;10.33;;;17.60;99.90;;;;;;5055920;28;20973;-58
2023/06/11 01:16:10;;;;;;;10.10;9.10;;;17.60;99.90;;;;;;5056618;28;20839;-58
2023/06/11 01:18:44;;;;;;;12.13;9.23;;;17.60;99.90;;;;;;5057030;28;20432;-58
2023/06/11 01:21:17;;;;;;;11.97;8.07;;;17.50;99.90;;;;;;5057238;28;20421;-58
2023/06/11 01:23:55;;;;;;;11.00;9.23;;;17.40;99.90;;;;;;5057117;28;20907;-59
2023/06/11 01:26:40;;;;;;;13.20;8.40;;;17.50;99.90;;;;;;5056796;28;21035;-57
2023/06/11 01:29:10;;;;;;;9.10;8.20;;;17.40;99.90;;;;;;5057614;28;20890;-58
2023/06/11 01:31:40;;;;;;;8.93;8.13;;;17.40;99.90;;;;;;5057725;28;20444;-58
2023/06/11 01:34:09;;;;;;;9.27;8.27;;;17.30;99.90;;;;;;5056798;28;20424;-59
2023/06/11 01:36:36;;;;;;;9.37;8.57;;;17.30;99.90;;;;;;5055684;28;20833;-58
2023/06/11 01:39:04;;;;;;;9.03;8.17;;;17.30;99.90;;;;;;5054949;28;20444;-58
2023/06/11 01:41:31;;;;;;;8.40;7.60;;;17.30;99.90;;;;;;5056196;28;20502;-59
2023/06/11 01:43:58;;;;;;;10.37;7.70;;;17.20;99.90;;;;;;5056032;28;20452;-58
2023/06/11 01:46:26;;;;;;;9.30;7.90;;;17.20;99.90;;;;;;5055670;28;20468;-59
2023/06/11 01:48:53;;;;;;;9.47;7.70;;;17.20;99.90;;;;;;5055767;28;20444;-59
2023/06/11 01:51:21;;;;;;;7.90;7.10;;;17.10;99.90;;;;;;5055483;28;20969;-59
2023/06/11 01:53:48;;;;;;;10.67;8.10;;;17.10;99.90;;;;;;5055902;28;20475;-58
2023/06/11 01:56:15;;;;;;;9.80;8.80;;;17.00;99.90;;;;;;5055074;28;20482;-58
2023/06/11 01:58:45;;;;;;;10.53;7.90;;;17.00;99.90;;;;;;5055422;28;20456;-57
2023/06/11 02:01:12;;;;;;;7.20;6.50;;;17.00;99.90;;;;;;5055321;28;20448;-58
2023/06/11 02:03:40;;;;;;;9.13;7.50;;;17.00;99.90;;;;;;5055329;28;20452;-58
2023/06/11 02:06:08;;;;;;;7.50;6.63;;;16.90;99.90;;;;;;5054907;28;20470;-58
2023/06/11 02:08:35;;;;;;;7.90;7.10;;;16.90;99.90;;;;;;5055107;28;20480;-57
2023/06/11 02:11:02;;;;;;;10.60;7.80;;;16.90;99.90;;;;;;5055095;28;20448;-58
2023/06/11 02:13:30;;;;;;;8.60;7.77;;;16.80;99.90;;;;;;5055494;28;20452;-59
2023/06/11 02:15:57;;;;;;;10.33;7.20;;;16.80;99.90;;;;;;5054948;28;20541;-59
2023/06/11 02:18:24;;;;;;;7.17;6.40;;;16.80;99.90;;;;;;5054903;28;20444;-59
2023/06/11 02:20:52;;;;;;;8.50;7.50;;;16.70;99.90;;;;;;5054904;28;20459;-59
2023/06/11 02:23:19;;;;;;;9.23;7.07;;;16.70;99.90;;;;;;5054573;28;20448;-58
2023/06/11 02:25:46;;;;;;;9.40;7.07;;;16.70;99.90;;;;;;5054821;28;20550;-58
2023/06/11 02:28:12;;;;;;;9.43;7.63;;;16.60;99.90;;;;;;5054919;28;20487;-58
2023/06/11 02:30:39;;;;;;;9.50;7.70;;;16.60;99.90;;;;;;5054484;28;20533;-59
2023/06/11 02:33:06;;;;;;;8.50;7.20;;;16.50;99.90;;;;;;5054719;28;20451;-58
2023/06/11 02:35:33;;;;;;;8.90;7.70;;;16.50;99.90;;;;;;5054271;28;20464;-59
2023/06/11 02:38:01;;;;;;;10.10;7.30;;;16.50;99.90;;;;;;5054586;28;20440;-59
2023/06/11 02:40:28;;;;;;;10.47;7.53;;;16.40;99.90;;;;;;5054560;28;20448;-59
2023/06/11 02:42:55;;;;;;;10.10;7.00;;;16.40;99.90;;;;;;5054505;28;20531;-59
2023/06/11 02:45:22;;;;;;;7.57;6.67;;;16.30;99.90;;;;;;5054424;28;20476;-58
2023/06/11 02:47:49;;;;;;;10.90;6.23;;;16.30;99.90;;;;;;5054428;28;20488;-60
2023/06/11 02:50:16;;;;;;;8.13;7.23;;;16.30;99.90;;;;;;5053388;28;20448;-59
2023/06/11 02:52:42;;;;;;;7.53;6.30;;;16.20;99.90;;;;;;5054273;28;20448;-59
2023/06/11 02:55:11;;;;;;;8.50;6.80;;;16.20;99.90;;;;;;5053873;28;20479;-58
2023/06/11 02:57:37;;;;;;;8.60;6.43;;;16.20;99.90;;;;;;5054301;28;20886;-57
2023/06/11 03:00:05;;;;;;;7.43;6.73;;;16.20;99.90;;;;;;5055052;28;20440;-59
2023/06/11 03:02:32;;;;;;;7.60;6.80;;;16.10;99.90;;;;;;5054929;28;20464;-59
2023/06/11 03:04:59;;;;;;;10.87;7.20;;;16.10;99.90;;;;;;5053758;28;20977;-59
2023/06/11 03:07:26;;;;;;;8.00;6.40;;;16.10;99.90;;;;;;5054001;28;20490;-59
2023/06/11 03:09:53;;;;;;;7.90;5.73;;;16.00;99.90;;;;;;5054008;28;20444;-58
2023/06/11 03:12:21;;;;;;;7.13;6.03;;;16.00;99.90;;;;;;5053705;28;20487;-57
2023/06/11 03:14:48;;;;;;;7.03;6.33;;;16.00;99.90;;;;;;5053975;28;20468;-58
2023/06/11 03:17:15;;;;;;;7.40;5.60;;;16.00;99.90;;;;;;5054282;28;20444;-58
2023/06/11 03:19:41;;;;;;;6.97;6.37;;;16.00;99.90;;;;;;5054075;28;20448;-58
2023/06/11 03:22:08;;;;;;;9.17;7.33;;;16.00;99.90;;;;;;5053892;28;20447;-58
2023/06/11 03:24:35;;;;;;;9.23;5.57;;;16.00;99.90;;;;;;5053946;28;21025;-57
2023/06/11 03:27:02;;;;;;;6.20;5.33;;;16.00;99.90;;;;;;5053971;28;20448;-58
2023/06/11 03:29:30;;;;;;;7.40;5.23;;;16.00;99.90;;;;;;5054219;28;20444;-58
2023/06/11 03:31:57;;;;;;;10.90;5.93;;;16.00;99.90;;;;;;5053841;28;20535;-58
2023/06/11 03:34:24;;;;;;;9.17;6.20;;;16.00;99.90;;;;;;5053680;28;20481;-58
2023/06/11 03:36:51;;;;;;;13.53;6.17;;;16.00;99.90;;;;;;5053588;28;20467;-58
2023/06/11 03:39:17;;;;;;;7.10;5.57;;;16.00;99.90;;;;;;5053556;28;20444;-58
2023/06/11 03:41:44;;;;;;;6.90;5.87;;;16.00;99.90;;;;;;5054367;28;20450;-59
2023/06/11 03:44:12;;;;;;;7.50;5.97;;;16.00;99.90;;;;;;5053698;28;20444;-58
2023/06/11 03:46:40;;;;;;;7.10;6.40;;;16.00;99.90;;;;;;5053306;28;20444;-58
2023/06/11 03:49:07;;;;;;;7.50;5.90;;;16.00;99.90;;;;;;5053174;28;20846;-59
2023/06/11 03:51:33;;;;;;;9.10;5.90;;;16.00;99.90;;;;;;5053351;28;20440;-58
2023/06/11 03:54:00;;;;;;;7.43;5.83;;;16.10;99.90;;;;;;5053105;28;20459;-58
2023/06/11 03:56:27;;;;;;;6.27;5.67;;;16.40;99.90;;;;;;5061045;22;20982;-58
2023/06/11 03:58:54;;;;;;;7.43;5.47;;;16.70;99.90;;;;;;5034041;28;20523;-58
2023/06/11 04:01:21;;;;;;;5.10;4.60;;;17.00;99.90;;;;;;5033914;28;20445;-58
2023/06/11 04:03:49;;;;;;;7.03;5.30;;;17.20;99.60;;;;;;5034081;28;20499;-58
2023/06/11 04:06:19;;;;;;;10.43;5.37;;;17.40;98.50;;;;;;5033862;28;20461;-58
2023/06/11 04:11:49;;;;;;;6.20;5.60;;;17.70;96.10;;;;;;5092334;28;20545;-57
2023/06/11 04:14:16;;;;;;;8.07;5.40;;;17.80;95.70;;;;;;5091079;28;21011;-58
2023/06/11 04:16:42;;;;;;;6.60;4.90;;;17.90;95.10;;;;;;5091117;28;20478;-57
2023/06/11 04:19:09;;;;;;;5.73;4.60;;;18.10;94.50;;;;;;5091283;28;20450;-57
2023/06/11 04:21:36;;;;;;;5.30;4.60;;;18.40;93.60;;;;;;5090986;28;20446;-58
2023/06/11 04:24:03;;;;;;;6.23;4.70;;;18.60;92.40;;;;;;5091718;28;20508;-58
2023/06/11 04:26:31;;;;;;;8.50;5.37;;;18.80;91.30;;;;;;5091064;28;20976;-57
2023/06/11 04:28:59;;;;;;;9.73;5.17;;;19.00;89.90;;;;;;5091179;28;20549;-57
2023/06/11 04:31:27;;;;;;;5.00;4.50;;;19.10;87.40;;;;;;5090757;28;20485;-58
2023/06/11 04:33:55;;;;;;;5.27;4.10;;;19.30;86.20;;;;;;5090906;28;20443;-58
2023/06/11 04:36:24;;;;;;;5.30;4.80;;;19.30;83.90;;;;;;5091333;28;20463;-58
2023/06/11 04:38:51;;;;;;;6.77;4.70;;;19.40;82.20;;;;;;5091718;28;20482;-57
2023/06/11 04:41:22;;;;;;;7.80;4.70;;;19.60;81.30;;;;;;5091498;28;20438;-58
2023/06/11 04:43:49;;;;;;;5.67;4.60;;;19.70;79.10;;;;;;5091240;28;20518;-57
2023/06/11 04:46:17;;;;;;;6.17;4.27;;;19.70;77.60;;;;;;5091641;28;20562;-59
2023/06/11 04:48:44;;;;;;;6.33;4.80;;;19.70;76.30;;;;;;5092212;28;20438;-57
2023/06/11 04:51:11;;;;;;;4.67;4.13;;;19.80;75.80;;;;;;5091360;28;20484;-57
2023/06/11 04:53:38;;;;;;;6.00;4.87;;;19.90;74.80;;;;;;5090899;28;20448;-56
2023/06/11 04:56:05;;;;;;;6.57;4.63;;;20.10;74.00;;;;;;5090957;28;20471;-58
2023/06/11 04:58:32;;;;;;;6.60;4.83;;;20.40;73.30;;;;;;5090440;28;20456;-58
2023/06/11 05:00:59;;;;;;;6.63;4.90;;;20.70;71.70;;;;;;5090394;28;20442;-57
2023/06/11 05:03:29;;;;;;;13.13;4.90;;;21.00;70.20;;;;;;5090669;28;20434;-58
2023/06/11 05:05:56;;;;;;;6.20;4.60;;;21.10;68.20;;;;;;5091255;28;20888;-57
2023/06/11 05:08:24;;;;;;;6.67;4.80;;;21.40;67.20;;;;;;5091412;28;20455;-57
2023/06/11 05:10:51;;;;;;;8.23;5.00;;;21.40;65.80;;;;;;5090896;28;20486;-57
2023/06/11 05:13:22;;;;;;;5.60;4.50;;;21.50;65.50;;;;;;5090945;28;20537;-58
2023/06/11 05:15:49;;;;;;;7.20;5.27;;;21.50;64.60;;;;;;5090343;28;20498;-58
2023/06/11 05:18:15;;;;;;;6.47;5.10;;;21.50;64.30;;;;;;5089943;28;20957;-58
2023/06/11 05:20:44;;;;;;;12.20;5.67;;;21.60;63.80;;;;;;5090110;28;20481;-59
2023/06/11 05:23:10;;;;;;;10.47;5.90;;;21.60;63.10;;;;;;5077215;28;20450;-57
2023/06/11 05:25:46;;;;;;;15.73;5.70;;;21.70;62.80;;;;;;5075830;28;20472;-58
2023/06/11 05:28:13;;;;;;;5.90;4.80;;;21.80;62.30;;;;;;5076380;28;20473;-59
2023/06/11 05:30:43;;;;;;;10.13;6.03;;;21.90;62.00;;;;;;5075854;28;20481;-58
2023/06/11 05:33:10;;;;;;;6.27;5.10;;;21.90;61.60;;;;;;5076244;28;20478;-58
2023/06/11 05:35:37;;;;;;;6.87;5.50;;;22.10;61.50;;;;;;5075654;28;20468;-57
2023/06/11 05:38:07;;;;;;;6.00;4.73;;;22.30;60.70;;;;;;5075919;28;20790;-57
2023/06/11 05:40:35;;;;;;;6.40;5.00;;;22.30;59.70;;;;;;5075384;28;20997;-57
2023/06/11 05:43:02;;;;;;;7.50;5.80;;;22.30;59.60;;;;;;5076314;28;21036;-59
2023/06/11 05:45:31;;;;;;;7.10;5.50;;;22.30;59.40;;;;;;5075561;28;20466;-58
2023/06/11 05:47:57;;;;;;;8.13;5.27;;;22.40;59.20;;;;;;5075752;28;20785;-59
2023/06/11 05:50:24;;;;;;;7.70;6.67;;;22.40;58.90;;;;;;5075591;28;20484;-58
2023/06/11 05:52:51;;;;;;;7.07;5.90;;;22.50;58.70;;;;;;5075396;28;20448;-59
2023/06/11 05:55:19;;;;;;;9.50;6.20;;;22.50;58.60;;;;;;5075517;28;20474;-58
2023/06/11 05:57:46;;;;;;;7.17;6.47;;;22.60;58.30;;;;;;5076793;28;20462;-58
2023/06/11 06:00:13;;;;;;;9.00;6.07;;;22.70;57.90;;;;;;5075670;28;20445;-59
2023/06/11 06:02:40;;;;;;;8.17;7.27;;;22.60;57.80;;;;;;5075830;28;20447;-58
2023/06/11 06:05:08;;;;;;;11.37;7.53;;;22.60;57.60;;;;;;5075754;28;20467;-59
2023/06/11 06:07:35;;;;;;;8.27;6.20;;;22.60;57.50;;;;;;5076147;28;20445;-58
2023/06/11 06:10:02;;;;;;;7.47;6.63;;;22.60;57.50;;;;;;5074805;28;20804;-58
2023/06/11 06:12:30;;;;;;;8.83;7.07;;;22.70;57.50;;;;;;5075189;28;20446;-59
2023/06/11 06:14:57;;;;;;;9.13;6.13;;;22.80;57.30;;;;;;5075256;28;20469;-59
2023/06/11 06:17:24;;;;;;;13.50;7.37;;;22.90;56.90;;;;;;5075248;28;20824;-58
2023/06/11 06:19:51;;;;;;;8.10;7.07;;;23.00;56.80;;;;;;5075201;28;20484;-58
2023/06/11 06:22:18;;;;;;;7.40;6.60;;;23.00;56.30;;;;;;5075182;28;20439;-59
2023/06/11 06:24:45;;;;;;;8.43;7.37;;;22.90;56.10;;;;;;5075009;28;20445;-58
2023/06/11 06:27:12;;;;;;;6.83;6.23;;;22.80;56.10;;;;;;5075302;28;20445;-59
2023/06/11 06:29:40;;;;;;;9.80;7.43;;;22.70;56.10;;;;;;5075071;28;20444;-58
2023/06/11 06:32:08;;;;;;;8.60;7.70;;;22.70;56.10;;;;;;5075236;28;20481;-58
2023/06/11 06:34:35;;;;;;;7.90;6.80;;;22.60;55.90;;;;;;5074120;28;20957;-59
2023/06/11 06:37:02;;;;;;;8.83;7.10;;;22.60;55.80;;;;;;5076040;28;20439;-59
2023/06/11 06:39:29;;;;;;;7.50;6.70;;;22.50;55.80;;;;;;5075530;28;20948;-59
2023/06/11 06:41:56;;;;;;;8.03;7.03;;;22.40;55.80;;;;;;5074960;28;20471;-58
2023/06/11 06:44:23;;;;;;;9.97;7.27;;;22.30;56.00;;;;;;5076130;28;20543;-59
2023/06/11 06:46:53;;;;;;;11.33;7.10;;;22.40;56.10;;;;;;5075730;28;20477;-59
2023/06/11 06:49:20;;;;;;;10.20;7.47;;;22.50;56.00;;;;;;5074786;28;20451;-57
2023/06/11 06:51:47;;;;;;;8.70;7.90;;;22.60;56.40;;;;;;5074304;28;20895;-59
2023/06/11 06:54:14;;;;;;;8.47;7.00;;;22.70;55.70;;;;;;5074509;28;20443;-57
2023/06/11 06:56:41;;;;;;;8.03;7.13;;;22.80;55.60;;;;;;5074823;28;20524;-59
2023/06/11 06:59:08;;;;;;;9.50;8.60;;;22.90;55.50;;;;;;5074891;28;20443;-58
2023/06/11 07:01:35;;;;;;;8.57;7.77;;;23.00;55.40;;;;;;5075435;28;20447;-60
2023/06/11 07:04:03;;;;;;;8.50;7.70;;;23.00;55.30;;;;;;5074640;28;20809;-59
2023/06/11 07:06:30;;;;;;;8.40;7.60;;;23.00;55.20;;;;;;5074549;28;20989;-58
2023/06/11 07:08:57;;;;;;;12.77;8.27;;;23.00;55.10;;;;;;5074822;28;20439;-59
2023/06/11 07:11:23;;;;;;;9.10;8.20;;;23.00;55.10;;;;;;5074396;28;20514;-59
2023/06/11 07:13:50;;;;;;;8.70;7.37;;;23.00;55.00;;;;;;5074977;28;20447;-58
2023/06/11 07:16:17;;;;;;;8.57;7.83;;;23.10;55.00;;;;;;5074918;28;20467;-59
2023/06/11 07:18:44;;;;;;;8.67;7.70;;;23.10;54.80;;;;;;5073901;28;20816;-57
2023/06/11 07:21:12;;;;;;;9.33;8.33;;;23.10;54.60;;;;;;5074160;28;20825;-59
2023/06/11 07:23:40;;;;;;;9.70;8.53;;;23.20;54.50;;;;;;5074347;28;21002;-58
2023/06/11 07:26:06;;;;;;;9.10;8.10;;;23.20;54.40;;;;;;5074134;28;20477;-58
2023/06/11 07:28:33;;;;;;;8.20;7.43;;;23.20;54.30;;;;;;5074254;28;20987;-57
2023/06/11 07:31:00;;;;;;;9.20;7.73;;;23.30;54.30;;;;;;5074539;28;20483;-58
2023/06/11 07:33:27;;;;;;;9.17;8.10;;;23.30;54.10;;;;;;5075722;28;20454;-59
2023/06/11 07:35:54;;;;;;;9.10;7.70;;;23.40;54.00;;;;;;5075735;28;20897;-59
2023/06/11 07:38:22;;;;;;;8.27;6.90;;;23.50;53.80;;;;;;5076250;28;20810;-59
2023/06/11 07:40:49;;;;;;;9.27;8.03;;;23.70;53.60;;;;;;5077176;28;20526;-57
2023/06/11 07:43:16;;;;;;;8.03;7.33;;;23.80;53.30;;;;;;5077294;28;20446;-57
2023/06/11 07:45:43;;;;;;;10.60;9.30;;;24.00;53.00;;;;;;5074757;28;20466;-58
2023/06/11 07:48:10;;;;;;;7.37;6.77;;;24.10;52.60;;;;;;5074742;28;20536;-58
2023/06/11 07:50:38;;;;;;;8.90;7.93;;;24.20;52.20;;;;;;5074295;28;20445;-58
2023/06/11 07:53:05;;;;;;;11.33;8.23;;;24.30;51.90;;;;;;5076960;28;20444;-57
2023/06/11 07:55:33;;;;;;;9.67;8.13;;;24.40;51.80;;;;;;5075913;28;20461;-58
2023/06/11 07:58:00;;;;;;;8.60;7.70;;;24.50;51.60;;;;;;5074699;28;20448;-59
2023/06/11 08:00:26;;;;;;;10.57;7.17;;;24.70;51.20;;;;;;5074610;28;20538;-57
2023/06/11 08:02:53;;;;;;;8.43;7.23;;;24.90;50.80;;;;;;5074434;28;20445;-58
2023/06/11 08:05:21;;;;;;;8.67;7.20;;;24.90;50.30;;;;;;5074075;28;20469;-58
2023/06/11 08:07:49;;;;;;;11.30;7.23;;;25.00;50.00;;;;;;5074207;28;20455;-57
2023/06/11 08:10:15;;;;;;;7.43;6.73;;;25.10;49.60;;;;;;5073145;28;20453;-58
2023/06/11 08:12:44;;;;;;;11.33;8.13;;;25.10;49.90;;;;;;5073388;28;20555;-59
2023/06/11 08:15:11;;;;;;;8.57;6.93;;;25.20;48.90;;;;;;5073578;28;20472;-58
2023/06/11 08:17:38;;;;;;;8.60;7.70;;;25.20;48.70;;;;;;5073227;28;20500;-58
2023/06/11 08:20:07;;;;;;;7.83;7.13;;;25.30;48.50;;;;;;5074456;28;20453;-58
2023/06/11 08:22:34;;;;;;;8.20;7.40;;;25.30;48.20;;;;;;5074259;28;20445;-59
2023/06/11 08:25:01;;;;;;;7.87;7.13;;;25.40;48.00;;;;;;5073995;28;20565;-57
2023/06/11 08:27:28;;;;;;;7.47;6.63;;;25.50;47.90;;;;;;5073822;28;20819;-58
2023/06/11 08:29:56;;;;;;;7.80;7.10;;;25.50;47.50;;;;;;5073868;28;20450;-58
2023/06/11 08:32:22;;;;;;;7.93;7.00;;;25.60;46.70;;;;;;5072965;28;20814;-56
2023/06/11 08:34:49;;;;;;;9.77;7.60;;;25.60;46.40;;;;;;5073622;28;20787;-58
2023/06/11 08:37:16;;;;;;;8.70;6.90;;;25.60;46.10;;;;;;5073984;28;20454;-57
2023/06/11 08:39:43;;;;;;;8.00;6.33;;;25.70;45.70;;;;;;5073391;28;20437;-58
2023/06/11 08:42:10;;;;;;;9.30;6.73;;;25.80;45.50;;;;;;5073105;28;20440;-58
2023/06/11 08:44:37;;;;;;;9.33;6.90;;;25.90;45.10;;;;;;5072944;28;20447;-57
2023/06/11 08:47:09;;;;;;;6.47;5.87;;;26.00;44.80;;;;;;5073600;28;20445;-59
2023/06/11 08:49:40;;;;;;;9.17;6.93;;;26.10;44.60;;;;;;5073120;28;20868;-59
2023/06/11 08:52:08;;;;;;;6.70;5.93;;;26.20;44.60;;;;;;5073528;28;20484;-59
2023/06/11 08:54:34;;;;;;;8.03;6.57;;;26.20;44.40;;;;;;5073564;28;20452;-58
2023/06/11 08:57:02;;;;;;;7.57;5.77;;;26.30;44.10;;;;;;5074795;28;20942;-58
2023/06/11 08:59:28;;;;;;;10.43;6.03;;;26.50;43.40;;;;;;5077331;28;20965;-58
2023/06/11 09:01:55;;;;;;;6.03;5.47;;;26.50;42.60;;;;;;5076954;28;20456;-58
2023/06/11 09:04:23;;;;;;;5.87;5.17;;;26.70;42.10;;;;;;5077527;28;20812;-58
2023/06/11 09:06:57;;;;;;;7.77;5.30;;;26.80;41.30;;;;;;5076786;28;20470;-59
2023/06/11 09:09:25;;;;;;;6.87;6.00;;;26.90;40.80;;;;;;5077318;28;20517;-58
2023/06/11 09:11:52;;;;;;;8.43;5.43;;;27.00;40.40;;;;;;5077808;28;20514;-59
2023/06/11 09:14:20;;;;;;;6.77;5.53;;;27.10;40.70;;;;;;5077661;28;20450;-59
2023/06/11 09:16:48;;;;;;;6.80;5.40;;;27.30;39.50;;;;;;5077726;28;20482;-58
2023/06/11 09:19:16;;;;;;;7.00;5.70;;;27.40;39.20;;;;;;5077974;28;20454;-59
2023/06/11 09:21:51;;;;;;;10.13;5.93;;;27.50;39.10;;;;;;5078751;28;20458;-59
2023/06/11 09:24:18;;;;;;;7.30;5.20;;;27.70;39.00;;;;;;5079040;28;20431;-59
2023/06/11 09:26:49;;;;;;;5.50;5.00;;;27.80;38.70;;;;;;5078260;28;20527;-58
2023/06/11 09:29:16;;;;;;;6.13;5.63;;;27.90;37.90;;;;;;5078431;28;20428;-59
2023/06/11 09:31:43;;;;;;;6.27;5.40;;;27.90;37.30;;;;;;5077875;28;20484;-58
2023/06/11 09:34:12;;;;;;;12.07;5.50;;;27.90;37.20;;;;;;5077581;28;20466;-58
2023/06/11 09:36:39;;;;;;;5.50;5.00;;;28.00;37.60;;;;;;5077898;28;20467;-58
2023/06/11 09:39:08;;;;;;;5.57;5.00;;;28.10;37.00;;;;;;5077986;28;20432;-59
2023/06/11 09:41:36;;;;;;;5.67;4.43;;;28.20;36.20;;;;;;5077316;28;20445;-59
2023/06/11 09:44:02;;;;;;;7.43;5.77;;;28.40;35.50;;;;;;5077580;28;20500;-59
2023/06/11 09:46:29;;;;;;;10.07;4.97;;;28.50;34.90;;;;;;5076785;28;20832;-59
2023/06/11 09:48:56;;;;;;;5.53;4.43;;;28.60;34.60;;;;;;5076222;28;20453;-57
2023/06/11 09:51:23;;;;;;;6.73;4.40;;;28.70;34.40;;;;;;5076556;28;20970;-58
2023/06/11 09:53:52;;;;;;;4.60;4.20;;;28.70;33.70;;;;;;5077295;28;20465;-58
2023/06/11 09:56:21;;;;;;;6.73;4.80;;;28.70;33.20;;;;;;5078937;22;20506;-60
2023/06/11 09:58:49;;;;;;;5.83;3.97;;;28.70;32.80;;;;;;5035184;28;20451;-60
2023/06/11 10:01:16;;;;;;;6.80;4.53;;;28.60;32.00;;;;;;5035083;28;20460;-61
2023/06/11 10:03:43;;;;;;;4.70;4.10;;;28.50;31.70;;;;;;5035060;28;20452;-59
2023/06/11 10:06:15;;;;;;;6.30;4.40;;;28.40;31.80;;;;;;5035097;28;20473;-59
2023/06/11 10:08:48;;;;;;;5.20;3.90;;;28.40;31.30;;;;;;5034900;28;20923;-60
2023/06/11 10:11:17;;;;;;;5.77;3.50;;;28.30;30.50;;;;;;5034973;28;20433;-59
2023/06/11 10:13:57;;;;;;;5.10;4.30;;;28.30;30.00;;;;;;5035186;28;20474;-60
2023/06/11 10:16:24;;;;;;;4.23;3.83;;;28.30;30.00;;;;;;5035319;28;21041;-60
2023/06/11 10:18:51;;;;;;;5.10;4.60;;;28.30;30.00;;;;;;5035520;28;20492;-61
2023/06/11 10:21:19;;;;;;;5.10;4.47;;;28.40;30.30;;;;;;5035621;28;20455;-60
2023/06/11 10:23:54;;;;;;;6.80;3.83;;;28.60;30.60;;;;;;5035450;28;20549;-61
2023/06/11 10:26:21;;;;;;;6.53;4.73;;;28.70;30.40;;;;;;5035593;28;20491;-61
2023/06/11 10:28:51;;;;;;;4.57;4.17;;;28.90;30.40;;;;;;5035432;28;20943;-60
2023/06/11 10:31:26;;;;;;;7.10;4.00;;;28.80;30.50;;;;;;5035285;28;20455;-60
2023/06/11 10:34:15;;;;;;;7.83;4.40;;;28.90;30.70;;;;;;5035842;28;20423;-62
2023/06/11 10:36:42;;;;;;;3.93;3.53;;;28.90;30.80;;;;;;5035672;28;20474;-62
2023/06/11 10:39:10;;;;;;;5.70;5.20;;;28.90;30.80;;;;;;5037179;28;20481;-61
2023/06/11 10:41:39;;;;;;;4.63;3.90;;;28.90;30.80;;;;;;5039172;28;20458;-60
2023/06/11 10:44:07;;;;;;;5.23;4.73;;;28.90;30.80;;;;;;5036632;28;20495;-61
2023/06/11 10:46:46;;;;;;;6.50;5.90;;;28.90;30.80;;;;;;5034738;28;20474;-60
2023/06/11 10:49:14;;;;;;;4.20;3.83;;;29.00;30.90;;;;;;5034819;28;20439;-59
2023/06/11 10:51:41;;;;;;;6.73;3.93;;;29.00;30.80;;;;;;5034888;28;20451;-59
2023/06/11 10:54:08;;;;;;;4.60;4.20;;;29.10;30.60;;;;;;5034271;28;20528;-59
2023/06/11 10:56:38;;;;;;;9.00;4.53;;;29.10;30.50;;;;;;5034274;28;20479;-60
2023/06/11 10:59:09;;;;;;;8.00;4.50;;;29.20;30.50;;;;;;5034694;28;20450;-59
2023/06/11 11:01:37;;;;;;;5.60;4.80;;;29.30;30.50;;;;;;5035105;28;20443;-58
2023/06/11 11:04:04;;;;;;;5.23;3.97;;;29.40;30.10;;;;;;5034994;28;20506;-60
2023/06/11 11:06:31;;;;;;;5.37;4.40;;;29.30;29.80;;;;;;5035338;28;20479;-60
2023/06/11 11:08:59;;;;;;;6.50;4.10;;;29.30;30.00;;;;;;5034724;28;20487;-61
2023/06/11 11:11:27;;;;;;;5.97;4.50;;;29.40;30.00;;;;;;5034198;28;20964;-61
2023/06/11 11:13:54;;;;;;;8.53;3.93;;;29.50;30.00;;;;;;5034483;28;20484;-61
2023/06/11 11:16:22;;;;;;;5.03;3.97;;;29.50;29.80;;;;;;5034037;28;20471;-60
2023/06/11 11:18:52;;;;;;;5.97;4.03;;;29.50;29.70;;;;;;5035775;28;20451;-60
2023/06/11 11:21:19;;;;;;;6.80;3.63;;;29.50;29.60;;;;;;5036375;28;20452;-60
2023/06/11 11:23:48;;;;;;;5.87;4.70;;;29.50;29.40;;;;;;5038785;28;20448;-60
2023/06/11 11:26:18;;;;;;;5.90;3.90;;;29.60;29.40;;;;;;5040321;28;20523;-61
2023/06/11 11:28:45;;;;;;;5.43;4.47;;;29.70;28.90;;;;;;5036513;28;20452;-60
2023/06/11 11:31:15;;;;;;;6.70;4.10;;;29.60;29.10;;;;;;5034343;28;20453;-60
2023/06/11 11:33:45;;;;;;;8.17;3.77;;;29.60;28.90;;;;;;5043241;28;20855;-59
2023/06/11 11:36:13;;;;;;;4.50;3.83;;;29.60;28.50;;;;;;5036133;28;20472;-63
2023/06/11 11:38:40;;;;;;;7.30;4.27;;;29.50;28.60;;;;;;5038530;28;20533;-60
2023/06/11 11:41:09;;;;;;;5.33;4.10;;;29.70;28.50;;;;;;5034814;28;20458;-59
2023/06/11 11:43:37;;;;;;;6.10;4.30;;;29.70;28.10;;;;;;5034845;28;20791;-60
2023/06/11 11:46:17;;;;;;;5.60;4.23;;;29.80;28.10;;;;;;5033939;28;20460;-59
2023/06/11 11:48:45;;;;;;;6.40;4.47;;;29.70;28.10;;;;;;5034483;28;20456;-59
2023/06/11 11:51:15;;;;;;;4.40;4.00;;;29.80;28.30;;;;;;5035200;28;20471;-59
2023/06/11 11:53:42;;;;;;;3.93;3.60;;;29.90;28.10;;;;;;5033800;28;20487;-58
2023/06/11 11:56:09;;;;;;;4.57;4.00;;;30.20;27.90;;;;;;5032776;28;20852;-60
2023/06/11 11:58:37;;;;;;;4.63;3.97;;;30.50;27.60;;;;;;5032849;28;20808;-59
2023/06/11 12:01:04;;;;;;;4.20;3.87;;;30.90;27.40;;;;;;5032631;28;20912;-59
2023/06/11 12:03:31;;;;;;;5.43;4.23;;;31.40;27.10;;;;;;5033242;28;20447;-59
2023/06/11 12:06:01;;;;;;;4.80;4.10;;;31.80;26.80;;;;;;5033374;28;20466;-60
2023/06/11 12:08:29;;;;;;;5.63;4.03;;;32.20;26.50;;;;;;5033108;28;20457;-60
2023/06/11 12:10:56;;;;;;;5.23;4.17;;;32.40;26.30;;;;;;5033146;28;20441;-59
2023/06/11 12:13:22;;;;;;;6.17;4.60;;;32.50;26.30;;;;;;5033262;28;20479;-59
2023/06/11 12:15:50;;;;;;;4.43;4.03;;;32.80;26.20;;;;;;5033298;28;20466;-60
2023/06/11 12:18:16;;;;;;;6.97;4.03;;;33.00;25.90;;;;;;5033433;28;20980;-59
2023/06/11 12:20:43;;;;;;;4.70;4.30;;;32.90;25.80;;;;;;5033929;28;20517;-59
2023/06/11 12:23:12;;;;;;;4.20;3.80;;;33.00;25.90;;;;;;5033418;28;20449;-59
2023/06/11 12:25:39;;;;;;;5.30;4.60;;;33.20;25.70;;;;;;5033285;28;20826;-59
2023/06/11 12:28:06;;;;;;;5.87;4.27;;;33.20;25.60;;;;;;5033925;28;20451;-60
2023/06/11 12:30:34;;;;;;;4.27;3.87;;;33.20;25.50;;;;;;5037686;28;20510;-61
2023/06/11 12:33:01;;;;;;;5.50;4.50;;;33.30;25.70;;;;;;5040911;28;20502;-60
2023/06/11 12:35:30;;;;;;;4.67;4.17;;;33.50;25.60;;;;;;5041819;28;20456;-60
2023/06/11 12:37:57;;;;;;;5.23;4.73;;;33.50;25.50;;;;;;5043353;28;20441;-59
2023/06/11 12:40:27;;;;;;;7.13;5.20;;;33.40;25.60;;;;;;5044467;28;20459;-60
2023/06/11 12:42:58;;;;;;;5.83;4.20;;;33.10;25.90;;;;;;5041732;28;20436;-60
2023/06/11 12:45:26;;;;;;;6.90;5.67;;;32.80;26.00;;;;;;5039692;28;20429;-59
2023/06/11 12:47:53;;;;;;;5.50;4.93;;;32.40;26.40;;;;;;5037216;28;20468;-60
2023/06/11 12:50:19;;;;;;;4.67;4.27;;;32.00;26.80;;;;;;5037257;28;20446;-60